Terminal Aerodrome Forecast
Issued by NWS Charleston, WV

Current Version | Previous Version | Graphics & Text | Print | Product List | Glossary On
Versions: 1 2 3 4 5 6 7 8 9 10 11 12 13 14 15 16 17 18 19 20 21 22 23 24 25 26 27 28 29 30 31 32 33
000
FTUS41 KRLX 280200 AAB
TAFCRW
TAF AMD
KCRW 280234Z 2803/2824 VRB04KT P6SM VCTS SCT050CB
      TEMPO 2803/2804 3SM TSRA BKN040CB OVC080
     FM280400 00000KT P6SM SCT045
     FM280700 00000KT P6SM BKN025
     FM280900 00000KT 6SM BR BKN025
     FM281100 00000KT 4SM BR SCT025
     FM281300 00000KT P6SM SCT025
     FM281400 00000KT P6SM FEW110=

USA.gov is the U.S. government's official web portal to all federal, state and local government web resources and services.